createdAt,value
2018-06-14T00:00:38.922Z,101322.08
2018-06-14T00:03:06.621Z,101314.63
2018-06-14T00:05:34.536Z,101315.30
2018-06-14T00:08:02.366Z,101312.28
2018-06-14T00:10:30.018Z,101311.56
2018-06-14T00:12:58.003Z,101312.53
2018-06-14T00:15:25.599Z,101312.66
2018-06-14T00:17:53.240Z,101316.77
2018-06-14T00:20:21.167Z,101320.81
2018-06-14T00:22:48.802Z,101316.11
2018-06-14T00:25:16.450Z,101312.25
2018-06-14T00:27:44.480Z,101316.35
2018-06-14T00:30:12.127Z,101316.05
2018-06-14T00:32:39.768Z,101315.36
2018-06-14T00:35:07.680Z,101314.15
2018-06-14T00:37:35.434Z,101316.44
2018-06-14T00:40:03.196Z,101319.22
2018-06-14T00:42:31.082Z,101317.55
2018-06-14T00:44:58.686Z,101317.19
2018-06-14T00:47:26.439Z,101315.98
2018-06-14T00:49:54.563Z,101318.37
2018-06-14T00:52:22.165Z,101314.95
2018-06-14T00:54:49.784Z,101318.99
2018-06-14T00:57:24.437Z,101321.77
2018-06-14T00:59:52.148Z,101326.26
2018-06-14T01:02:19.740Z,101321.06
2018-06-14T01:04:47.722Z,101328.69
2018-06-14T01:07:15.465Z,101320.39
2018-06-14T01:09:43.379Z,101317.86
2018-06-14T01:12:11.249Z,101318.76
2018-06-14T01:14:38.944Z,101317.55
2018-06-14T01:17:06.809Z,101314.95
2018-06-14T01:19:34.818Z,101314.62
2018-06-14T01:22:02.465Z,101320.43
2018-06-14T01:24:30.085Z,101311.69
2018-06-14T01:26:58.008Z,101316.17
2018-06-14T01:29:26.140Z,101319.27
2018-06-14T01:31:53.935Z,101322.86
2018-06-14T01:34:21.953Z,101317.61
2018-06-14T01:36:49.599Z,101315.08
2018-06-14T01:39:17.269Z,101313.80
2018-06-14T01:41:45.239Z,101315.58
2018-06-14T01:44:12.842Z,101316.09
2018-06-14T01:46:40.493Z,101317.47
2018-06-14T01:49:08.532Z,101316.69
2018-06-14T01:51:36.090Z,101315.86
2018-06-14T01:54:03.802Z,101323.82
2018-06-14T01:56:31.660Z,101329.18
2018-06-14T01:58:59.263Z,101326.53
2018-06-14T02:01:26.948Z,101329.69
2018-06-14T02:03:55.005Z,101332.34
2018-06-14T02:06:22.614Z,101332.34
2018-06-14T02:08:50.233Z,101332.71
2018-06-14T02:11:18.526Z,101336.20
2018-06-14T02:13:46.172Z,101335.81
2018-06-14T02:16:13.829Z,101335.81
2018-06-14T02:18:41.868Z,101332.28
2018-06-14T02:21:09.571Z,101337.20
2018-06-14T02:23:37.167Z,101330.95
2018-06-14T02:26:05.562Z,101326.53
2018-06-14T02:28:33.259Z,101324.70
2018-06-14T02:31:00.894Z,101326.86
2018-06-14T02:33:28.889Z,101321.11
2018-06-14T02:35:56.637Z,101328.62
2018-06-14T02:38:24.237Z,101325.48
2018-06-14T02:40:52.985Z,101326.36
2018-06-14T02:43:20.946Z,101320.12
2018-06-14T02:45:48.574Z,101329.34
2018-06-14T02:48:16.777Z,101325.80
2018-06-14T02:50:44.456Z,101327.91
2018-06-14T02:53:12.115Z,101320.38
2018-06-14T02:55:40.134Z,101325.57
2018-06-14T02:58:07.804Z,101325.03
2018-06-14T03:00:35.481Z,101323.20
2018-06-14T03:03:03.396Z,101322.24
2018-06-14T03:05:31.038Z,101330.54
2018-06-14T03:07:58.713Z,101330.81
2018-06-14T03:10:26.670Z,101332.03
2018-06-14T03:12:54.533Z,101325.70
2018-06-14T03:15:24.904Z,101327.42
2018-06-14T03:17:52.988Z,101324.14
2018-06-14T03:20:25.183Z,101316.91
2018-06-14T03:22:53.631Z,101312.30
2018-06-14T03:25:21.441Z,101317.86
2018-06-14T03:27:49.134Z,101316.73
2018-06-14T03:30:17.146Z,101307.66
2018-06-14T03:32:45.140Z,101313.70
2018-06-14T03:35:12.737Z,101308.20
2018-06-14T03:37:40.625Z,101311.95
2018-06-14T03:40:08.402Z,101318.34
2018-06-14T03:42:41.513Z,101322.14
2018-06-14T03:45:09.708Z,101317.06
2018-06-14T03:47:37.332Z,101319.41
2018-06-14T03:50:04.985Z,101309.92
2018-06-14T03:52:33.090Z,101309.67
2018-06-14T03:55:00.681Z,101309.87
2018-06-14T03:57:28.300Z,101307.83
2018-06-14T03:59:56.067Z,101305.80
2018-06-14T04:02:23.668Z,101305.98
2018-06-14T04:04:51.526Z,101311.47
2018-06-14T04:07:19.453Z,101306.27
2018-06-14T04:09:47.034Z,101302.83
2018-06-14T04:12:14.656Z,101297.24
2018-06-14T04:14:42.860Z,101299.08
2018-06-14T04:17:10.442Z,101300.63
2018-06-14T04:19:38.114Z,101305.16
2018-06-14T04:22:06.052Z,101306.21
2018-06-14T04:24:33.696Z,101307.97
2018-06-14T04:27:01.360Z,101310.95
2018-06-14T04:29:29.384Z,101306.02
2018-06-14T04:31:56.940Z,101301.91
2018-06-14T04:34:24.631Z,101303.61
2018-06-14T04:36:52.574Z,101301.04
2018-06-14T04:39:20.165Z,101299.51
2018-06-14T04:41:47.790Z,101292.67
2018-06-14T04:44:15.654Z,101288.53
2018-06-14T04:46:43.417Z,101285.19
2018-06-14T04:49:11.079Z,101285.45
2018-06-14T04:51:43.226Z,101281.70
2018-06-14T04:54:10.983Z,101282.03
2018-06-14T04:56:38.695Z,101274.39
2018-06-14T04:59:06.538Z,101275.88
2018-06-14T05:01:34.179Z,101279.16
2018-06-14T05:04:01.828Z,101273.75
2018-06-14T05:06:29.889Z,101278.05
2018-06-14T05:08:57.522Z,101274.34
2018-06-14T05:11:25.153Z,101273.76
2018-06-14T05:13:53.002Z,101278.63
2018-06-14T05:16:20.772Z,101273.80
2018-06-14T05:18:48.376Z,101268.89
2018-06-14T05:21:16.189Z,101269.72
2018-06-14T05:23:43.861Z,101275.88
2018-06-14T05:26:11.519Z,101272.69
2018-06-14T05:28:39.442Z,101277.05
2018-06-14T05:31:07.028Z,101285.33
2018-06-14T05:33:34.634Z,101276.69
2018-06-14T05:36:02.536Z,101274.44
2018-06-14T05:38:30.140Z,101277.41
2018-06-14T05:40:57.742Z,101272.98
2018-06-14T05:43:25.608Z,101277.79
2018-06-14T05:45:53.200Z,101270.18
2018-06-14T05:48:20.776Z,101278.81
2018-06-14T05:50:48.807Z,101271.28
2018-06-14T05:53:16.453Z,101264.13
2018-06-14T05:55:44.239Z,101255.25
2018-06-14T05:58:12.203Z,101255.72
2018-06-14T06:00:39.868Z,101256.21
2018-06-14T06:03:07.567Z,101252.97
2018-06-14T06:05:35.405Z,101244.08
2018-06-14T06:08:03.051Z,101203.89
2018-06-14T06:10:30.699Z,101247.23
2018-06-14T06:12:58.575Z,101242.83
2018-06-14T06:15:26.174Z,101249.14
2018-06-14T06:17:53.914Z,101247.91
2018-06-14T06:20:21.762Z,101244.34
2018-06-14T06:22:49.356Z,101242.33
2018-06-14T06:25:16.984Z,101236.58
2018-06-14T06:27:45.016Z,101230.45
2018-06-14T06:30:12.629Z,101218.45
2018-06-14T06:32:40.310Z,101211.45
2018-06-14T06:35:08.040Z,101217.78
2018-06-14T06:37:35.084Z,101214.23
2018-06-14T06:40:02.790Z,101219.66
2018-06-14T06:42:30.581Z,101215.73
2018-06-14T06:44:58.260Z,101213.01
2018-06-14T06:47:25.854Z,101222.48
2018-06-14T06:49:53.970Z,101218.99
2018-06-14T06:52:21.675Z,101222.14
2018-06-14T06:54:49.817Z,101211.96
2018-06-14T06:57:17.742Z,101224.09
2018-06-14T06:59:45.326Z,101216.60
2018-06-14T07:02:13.000Z,101218.87
2018-06-14T07:04:40.954Z,101206.94
2018-06-14T07:07:08.572Z,101196.50
2018-06-14T07:09:36.183Z,101198.97
2018-06-14T07:12:04.121Z,101197.89
2018-06-14T07:14:31.739Z,101206.09
2018-06-14T07:16:59.427Z,101207.16
2018-06-14T07:19:28.145Z,101204.52
2018-06-14T07:21:55.792Z,101205.06
2018-06-14T07:24:23.390Z,101198.50
2018-06-14T07:26:51.240Z,101200.50
2018-06-14T07:29:18.852Z,101212.16
2018-06-14T07:31:46.458Z,101212.02
2018-06-14T07:34:14.778Z,101202.28
2018-06-14T07:36:42.420Z,101195.23
2018-06-14T07:39:11.542Z,101198.25
2018-06-14T07:41:39.320Z,101198.39
2018-06-14T07:44:07.054Z,101195.27
2018-06-14T07:46:34.809Z,101200.59
2018-06-14T07:49:02.909Z,101195.75
2018-06-14T07:51:45.479Z,101200.58
2018-06-14T07:54:13.489Z,101197.55
2018-06-14T07:56:41.056Z,101193.07
2018-06-14T07:59:08.640Z,101186.48
2018-06-14T08:01:36.839Z,101182.22
2018-06-14T08:04:04.450Z,101182.00
2018-06-14T08:06:32.135Z,101170.53
2018-06-14T08:09:00.282Z,101185.58
2018-06-14T08:11:27.924Z,101186.58
2018-06-14T08:13:55.507Z,101189.05
2018-06-14T08:16:23.657Z,101189.33
2018-06-14T08:18:51.731Z,101187.87
2018-06-14T08:21:19.583Z,101183.60
2018-06-14T08:23:47.590Z,101186.30
2018-06-14T08:26:15.217Z,101174.25
2018-06-14T08:28:42.839Z,101176.31
2018-06-14T08:31:10.616Z,101183.35
2018-06-14T08:33:38.227Z,101183.00
2018-06-14T08:36:06.028Z,101182.37
2018-06-14T08:38:34.084Z,101181.91
2018-06-14T08:41:01.743Z,101182.77
2018-06-14T08:43:29.512Z,101175.93
2018-06-14T08:45:57.381Z,101191.45
2018-06-14T08:48:25.042Z,101178.62
2018-06-14T08:50:52.713Z,101172.95
2018-06-14T08:53:20.722Z,101172.95
2018-06-14T08:55:48.411Z,101167.58
2018-06-14T08:58:16.005Z,101161.12
2018-06-14T09:00:44.024Z,101166.87
2018-06-14T09:03:11.651Z,101162.72
2018-06-14T09:05:39.277Z,101170.91
2018-06-14T09:08:07.250Z,101170.56
2018-06-14T09:10:34.842Z,101180.73
2018-06-14T09:13:02.493Z,101174.77
2018-06-14T09:15:30.511Z,101180.02
2018-06-14T09:17:58.222Z,101174.29
2018-06-14T09:20:25.849Z,101179.44
2018-06-14T09:22:53.897Z,101170.38
2018-06-14T09:25:21.529Z,101171.25
2018-06-14T09:27:49.153Z,101171.84
2018-06-14T09:30:17.095Z,101169.38
2018-06-14T09:32:44.738Z,101168.66
2018-06-14T09:35:12.402Z,101163.39
2018-06-14T09:37:40.421Z,101165.22
2018-06-14T09:40:08.089Z,101171.59
2018-06-14T09:42:35.750Z,101169.49
2018-06-14T09:45:03.777Z,101165.30
2018-06-14T09:47:31.462Z,101163.19
2018-06-14T09:49:59.007Z,101148.14
2018-06-14T09:52:27.055Z,101152.48
2018-06-14T09:54:54.724Z,101152.33
2018-06-14T09:57:22.333Z,101149.00
2018-06-14T09:59:50.301Z,101140.09
2018-06-14T10:02:17.955Z,101144.59
2018-06-14T10:04:45.563Z,101135.77
2018-06-14T10:07:13.460Z,101134.06
2018-06-14T10:09:41.051Z,101139.55
2018-06-14T10:12:08.601Z,101137.45
2018-06-14T10:14:36.606Z,101141.13
2018-06-14T10:17:04.713Z,101134.64
2018-06-14T10:19:32.335Z,101129.60
2018-06-14T10:22:00.406Z,101116.97
2018-06-14T10:24:28.151Z,101115.27
2018-06-14T10:26:55.755Z,101117.20
2018-06-14T10:29:23.804Z,101114.87
2018-06-14T10:31:51.568Z,101120.48
2018-06-14T10:34:19.184Z,101109.84
2018-06-14T10:36:47.195Z,101104.58
2018-06-14T10:39:14.896Z,101110.94
2018-06-14T10:41:42.512Z,101114.11
2018-06-14T10:44:10.317Z,101107.86
2018-06-14T10:46:37.996Z,101107.50
2018-06-14T10:49:05.682Z,101102.23
2018-06-14T10:51:33.668Z,101111.76
2018-06-14T10:54:02.182Z,101100.36
2018-06-14T10:56:29.805Z,101107.70
2018-06-14T10:58:57.719Z,101110.11
2018-06-14T11:01:25.303Z,101109.50
2018-06-14T11:03:53.005Z,101104.70
2018-06-14T11:06:20.938Z,101112.12
2018-06-14T11:08:48.592Z,101115.25
2018-06-14T11:11:16.254Z,101117.05
2018-06-14T11:13:44.307Z,101110.91
2018-06-14T11:16:11.991Z,101112.00
2018-06-14T11:18:39.582Z,101115.97
2018-06-14T11:21:07.612Z,101119.61
2018-06-14T11:23:35.224Z,101109.09
2018-06-14T11:26:02.918Z,101105.44
2018-06-14T11:28:30.841Z,101087.63
2018-06-14T11:30:58.432Z,101099.48
2018-06-14T11:33:26.072Z,101102.25
2018-06-14T11:35:54.248Z,101094.74
2018-06-14T11:38:21.909Z,101095.65
2018-06-14T11:40:49.609Z,101087.16
2018-06-14T11:43:17.644Z,101094.37
2018-06-14T11:45:45.305Z,101097.90
2018-06-14T11:48:12.992Z,101089.38
2018-06-14T11:50:40.747Z,101082.55
2018-06-14T11:53:08.423Z,101079.17
2018-06-14T11:55:36.032Z,101077.11
2018-06-14T11:58:04.067Z,101076.53
2018-06-14T12:00:31.800Z,101081.03
2018-06-14T12:02:59.414Z,101073.70
2018-06-14T12:05:27.471Z,101072.06
2018-06-14T12:07:55.111Z,101071.56
2018-06-14T12:10:22.706Z,101066.66
2018-06-14T12:12:50.666Z,101067.53
2018-06-14T12:15:18.313Z,101061.19
2018-06-14T12:17:45.926Z,101064.63
2018-06-14T12:20:13.815Z,101059.63
2018-06-14T12:22:41.474Z,101058.64
2018-06-14T12:25:09.146Z,101043.87
2018-06-14T12:27:37.343Z,101035.82
2018-06-14T12:30:05.066Z,101038.69
2018-06-14T12:32:32.720Z,101036.47
2018-06-14T12:35:00.890Z,101028.31
2018-06-14T12:37:28.525Z,101026.74
2018-06-14T12:39:56.093Z,101038.24
2018-06-14T12:42:24.242Z,101030.19
2018-06-14T12:44:51.870Z,101027.86
2018-06-14T12:47:50.625Z,101009.18
2018-06-14T12:50:18.263Z,101012.52
2018-06-14T12:52:45.886Z,101011.64
2018-06-14T12:55:13.796Z,101016.65
2018-06-14T12:57:41.452Z,100998.55
2018-06-14T13:00:09.136Z,101007.11
2018-06-14T13:02:37.045Z,101012.09
2018-06-14T13:05:04.722Z,101004.50
2018-06-14T13:07:32.320Z,101000.48
2018-06-14T13:10:00.365Z,100995.50
2018-06-14T13:12:28.060Z,100995.03
2018-06-14T13:14:55.642Z,100985.23
2018-06-14T13:17:23.632Z,100984.66
2018-06-14T13:19:51.284Z,100992.59
2018-06-14T13:22:18.916Z,100987.70
2018-06-14T13:24:46.981Z,100973.44
2018-06-14T13:27:14.642Z,100959.62
2018-06-14T13:29:42.793Z,100962.30
2018-06-14T13:32:10.915Z,100959.62
2018-06-14T13:34:39.152Z,100950.80
2018-06-14T13:37:06.835Z,100947.88
2018-06-14T13:39:34.906Z,100949.33
2018-06-14T13:42:03.413Z,100943.95
2018-06-14T13:44:31.002Z,100949.69
2018-06-14T13:46:59.305Z,100940.05
2018-06-14T13:49:26.986Z,100936.88
2018-06-14T13:51:54.592Z,100934.31
2018-06-14T13:54:22.413Z,100932.86
2018-06-14T13:56:50.053Z,100917.11
2018-06-14T13:59:17.800Z,100919.68
2018-06-14T14:01:46.889Z,100914.67
2018-06-14T14:04:14.530Z,100907.66
2018-06-14T14:06:42.174Z,100903.88
2018-06-14T14:09:11.592Z,100907.20
2018-06-14T14:11:39.265Z,100901.95
2018-06-14T14:14:06.837Z,100902.20
2018-06-14T14:16:34.776Z,100900.27
2018-06-14T14:19:02.396Z,100901.14
2018-06-14T14:21:29.998Z,100845.67
2018-06-14T14:23:58.190Z,100899.52
2018-06-14T14:26:25.795Z,100894.27
2018-06-14T14:28:53.434Z,100893.90
2018-06-14T14:31:21.600Z,100897.17
2018-06-14T14:33:49.231Z,100891.92
2018-06-14T14:36:16.870Z,100891.56
2018-06-14T14:38:45.042Z,100883.50
2018-06-14T14:41:12.661Z,100880.69
2018-06-14T14:43:40.628Z,100878.23
2018-06-14T14:46:08.926Z,100879.57
2018-06-14T14:48:36.479Z,100877.59
2018-06-14T14:51:04.086Z,100878.06
2018-06-14T14:53:31.882Z,100885.25
2018-06-14T14:55:59.457Z,100875.61
2018-06-14T14:58:27.132Z,100877.94
2018-06-14T15:00:55.177Z,100876.31
2018-06-14T15:03:22.844Z,100869.23
2018-06-14T15:05:50.473Z,100875.48
2018-06-14T15:08:18.410Z,100870.70
2018-06-14T15:10:45.999Z,100861.66
2018-06-14T15:13:13.653Z,100870.70
2018-06-14T15:15:41.576Z,100858.14
2018-06-14T15:18:09.208Z,100852.66
2018-06-14T15:20:36.805Z,100845.44
2018-06-14T15:23:04.897Z,100853.13
2018-06-14T15:25:32.479Z,100844.72
2018-06-14T15:28:00.127Z,100843.37
2018-06-14T15:30:28.019Z,100835.69
2018-06-14T15:32:55.962Z,100820.56
2018-06-14T15:35:23.631Z,100827.27
2018-06-14T15:37:52.095Z,100826.87
2018-06-14T15:40:19.759Z,100822.38
2018-06-14T15:42:47.527Z,100818.47
2018-06-14T15:45:15.444Z,100811.64
2018-06-14T15:47:43.134Z,100812.00
2018-06-14T15:50:10.737Z,100810.66
2018-06-14T15:52:38.730Z,100792.84
2018-06-14T15:57:12.898Z,100790.16
2018-06-14T15:59:41.049Z,100787.23
2018-06-14T16:02:08.629Z,100783.69
2018-06-14T16:04:36.281Z,100778.32
2018-06-14T16:07:04.125Z,100778.79
2018-06-14T16:09:31.785Z,100776.98
2018-06-14T16:11:59.420Z,100776.98
2018-06-14T16:14:27.336Z,100776.11
2018-06-14T16:16:54.972Z,100777.34
2018-06-14T16:19:22.612Z,100766.59
2018-06-14T16:21:50.536Z,100766.13
2018-06-14T16:24:18.126Z,100765.65
2018-06-14T16:26:45.781Z,100760.28
2018-06-14T16:29:13.552Z,100758.94
2018-06-14T16:31:41.150Z,100752.59
2018-06-14T16:34:08.978Z,100688.63
2018-06-14T16:36:36.794Z,100748.20
2018-06-14T16:39:07.033Z,100739.64
2018-06-14T16:41:34.872Z,100736.00
2018-06-14T16:44:02.510Z,100746.23
2018-06-14T16:46:30.103Z,100736.36
2018-06-14T16:48:57.927Z,100739.52
2018-06-14T16:51:25.506Z,100741.48
2018-06-14T16:53:53.094Z,100735.61
2018-06-14T16:56:21.008Z,100735.49
2018-06-14T16:58:48.713Z,100734.55
2018-06-14T17:01:16.356Z,100727.83
2018-06-14T17:03:44.108Z,100724.28
2018-06-14T17:06:11.743Z,100723.30
2018-06-14T17:08:39.465Z,100719.78
2018-06-14T17:11:07.316Z,100718.80
2018-06-14T17:13:34.955Z,100713.42
2018-06-14T17:16:02.661Z,100718.32
2018-06-14T17:18:30.808Z,100716.98
2018-06-14T17:20:58.496Z,100712.95
2018-06-14T17:23:26.077Z,100705.26
2018-06-14T17:25:54.059Z,100702.45
2018-06-14T17:28:22.623Z,100706.36
2018-06-14T17:30:50.235Z,100698.19
2018-06-14T17:33:18.244Z,100697.20
2018-06-14T17:35:46.006Z,100688.08
2018-06-14T17:38:13.633Z,100679.55
2018-06-14T17:40:41.574Z,100667.83
2018-06-14T17:43:09.201Z,100609.19
2018-06-14T17:45:36.869Z,100651.47
2018-06-14T17:48:04.850Z,100657.20
2018-06-14T17:50:33.113Z,100663.80
2018-06-14T17:53:00.728Z,100662.33
2018-06-14T17:55:28.621Z,100653.44
2018-06-14T17:57:56.255Z,100646.22
2018-06-14T18:00:23.910Z,100648.78
2018-06-14T18:02:51.705Z,100636.83
2018-06-14T18:05:19.312Z,100646.22
2018-06-14T18:07:47.095Z,100631.58
2018-06-14T18:10:14.833Z,100637.81
2018-06-14T18:12:42.668Z,100628.05
2018-06-14T18:15:10.444Z,100608.14
2018-06-14T18:17:38.222Z,100631.22
2018-06-14T18:20:05.814Z,100625.84
2018-06-14T18:22:33.620Z,100622.80
2018-06-14T18:25:01.468Z,100627.67
2018-06-14T18:27:29.102Z,100619.25
2018-06-14T18:29:56.812Z,100621.94
2018-06-14T18:32:24.421Z,100612.42
2018-06-14T18:34:52.054Z,100625.25
2018-06-14T18:37:19.979Z,100623.04
2018-06-14T18:39:47.754Z,100626.59
2018-06-14T18:42:15.368Z,100617.55
2018-06-14T18:44:43.092Z,100621.45
2018-06-14T18:47:10.866Z,100617.78
2018-06-14T18:49:38.535Z,100630.26
2018-06-14T18:52:06.234Z,100633.42
2018-06-14T18:54:33.846Z,100628.05
2018-06-14T18:57:01.479Z,100630.14
2018-06-14T18:59:29.223Z,100619.39
2018-06-14T19:01:56.869Z,100613.78
2018-06-14T19:04:24.531Z,100603.52
2018-06-14T19:06:52.156Z,100607.90
2018-06-14T19:09:20.282Z,100598.50
2018-06-14T19:11:48.740Z,100554.93
2018-06-14T19:14:16.406Z,100596.91
2018-06-14T19:16:44.257Z,100598.64
2018-06-14T19:19:11.938Z,100604.84
2018-06-14T19:21:39.738Z,100606.31
2018-06-14T19:24:07.369Z,100599.36
2018-06-14T19:26:35.040Z,100590.56
2018-06-14T19:29:02.723Z,100587.30
2018-06-14T19:31:30.407Z,100578.97
2018-06-14T19:33:58.050Z,100577.27
2018-06-14T19:36:25.717Z,100572.89
2018-06-14T19:38:53.629Z,100573.84
2018-06-14T19:41:21.232Z,100563.35
2018-06-14T19:43:49.029Z,100563.47
2018-06-14T19:46:16.760Z,100516.84
2018-06-14T19:48:44.410Z,100565.80
2018-06-14T19:51:12.077Z,100559.21
2018-06-14T19:53:39.635Z,100568.61
2018-06-14T19:56:07.313Z,100567.63
2018-06-14T19:58:35.121Z,100568.23
2018-06-14T20:01:02.833Z,100564.80
2018-06-14T20:03:30.469Z,100561.53
2018-06-14T20:05:58.145Z,100562.60
2018-06-14T20:08:25.935Z,100559.33
2018-06-14T20:10:53.547Z,100551.28
2018-06-14T20:13:21.232Z,100549.94
2018-06-14T20:15:48.783Z,100542.48
2018-06-14T20:18:16.372Z,100545.28
2018-06-14T20:20:44.234Z,100547.86
2018-06-14T20:23:11.938Z,100541.27
2018-06-14T20:25:39.584Z,100540.52
2018-06-14T20:28:07.304Z,100546.02
2018-06-14T20:30:34.950Z,100547.09
2018-06-14T20:33:02.647Z,100537.10
2018-06-14T20:35:30.422Z,100534.15
2018-06-14T20:37:58.087Z,100534.39
2018-06-14T20:40:25.899Z,100526.23
2018-06-14T20:42:53.662Z,100533.17
2018-06-14T20:45:21.324Z,100520.00
2018-06-14T20:47:48.992Z,100521.46
2018-06-14T20:50:16.945Z,100515.34
2018-06-14T20:52:44.737Z,100506.71
2018-06-14T20:55:12.478Z,100510.34
2018-06-14T20:57:40.223Z,100511.80
2018-06-14T21:00:07.819Z,100513.27
2018-06-14T21:02:35.506Z,100507.16
2018-06-14T21:05:03.532Z,100506.56
2018-06-14T21:07:31.164Z,100501.31
2018-06-14T21:09:58.775Z,100504.95
2018-06-14T21:12:26.661Z,100501.55
2018-06-14T21:14:54.308Z,100495.45
2018-06-14T21:17:21.933Z,100503.48
2018-06-14T21:19:49.573Z,100504.95
2018-06-14T21:22:17.309Z,100499.23
2018-06-14T21:24:44.908Z,100497.14
2018-06-14T21:27:12.552Z,100489.22
2018-06-14T21:29:40.315Z,100479.48
2018-06-14T21:32:07.909Z,100486.30
2018-06-14T21:34:35.689Z,100477.00
2018-06-14T21:37:03.381Z,100470.77
2018-06-14T21:39:30.990Z,100472.70
2018-06-14T21:41:58.971Z,100472.11
2018-06-14T21:44:26.751Z,100466.36
2018-06-14T21:46:54.353Z,100466.98
2018-06-14T21:49:22.272Z,100455.13
2018-06-14T21:51:50.046Z,100460.02
2018-06-14T21:54:17.603Z,100466.36
2018-06-14T21:56:45.303Z,100425.60
2018-06-14T21:59:13.125Z,100456.47
2018-06-14T22:01:40.747Z,100455.13
2018-06-14T22:04:08.468Z,100452.09
2018-06-14T22:06:36.298Z,100446.73
2018-06-14T22:09:06.170Z,100448.07
2018-06-14T22:11:33.992Z,100447.33
2018-06-14T22:14:01.665Z,100447.72
2018-06-14T22:16:29.269Z,100451.23
2018-06-14T22:18:56.969Z,100407.09
2018-06-14T22:21:24.833Z,100437.23
2018-06-14T22:23:52.688Z,100445.39
2018-06-14T22:26:20.558Z,100443.06
2018-06-14T22:28:48.343Z,100442.20
2018-06-14T22:31:15.919Z,100446.46
2018-06-14T22:33:54.963Z,100442.44
2018-06-14T22:36:22.733Z,100443.42
2018-06-14T22:38:50.333Z,100433.30
2018-06-14T22:41:18.055Z,100432.46
2018-06-14T22:43:46.056Z,100423.09
2018-06-14T22:46:13.694Z,100449.64
2018-06-14T22:48:41.442Z,100453.78
2018-06-14T22:51:15.878Z,100447.20
2018-06-14T22:53:43.771Z,100439.99
2018-06-14T22:56:11.406Z,100447.67
2018-06-14T22:58:39.340Z,100442.91
2018-06-14T23:01:42.234Z,100443.89
2018-06-14T23:04:11.134Z,100439.63
2018-06-14T23:06:38.845Z,100415.52
2018-06-14T23:11:17.588Z,100435.97
2018-06-14T23:13:45.217Z,100442.31
2018-06-14T23:16:12.878Z,100443.14
2018-06-14T23:18:40.854Z,100453.39
2018-06-14T23:21:08.436Z,100446.58
2018-06-14T23:23:36.049Z,100446.58
2018-06-14T23:26:04.317Z,100455.83
2018-06-14T23:28:32.016Z,100448.27
2018-06-14T23:30:59.570Z,100442.31
2018-06-14T23:33:27.577Z,100442.67
2018-06-14T23:35:55.221Z,100450.13
2018-06-14T23:38:22.756Z,100435.38
2018-06-14T23:40:50.751Z,100438.92
2018-06-14T23:43:18.354Z,100429.27
2018-06-14T23:45:46.380Z,100427.94
2018-06-14T23:48:14.360Z,100418.20
2018-06-14T23:50:41.980Z,100419.06
2018-06-14T23:53:09.616Z,100414.66
2018-06-14T23:55:37.574Z,100427.58
2018-06-14T23:58:05.261Z,100421.74
